• Join FlightAware (Why Join?)
  • Login
  • US Flag 
03:59AM EDT


 

Airport Tracker/Info


-or-


 

Live Flight TrackerFlight Track Log ✈ GGN7281 ✈ 27-Apr-2013 ✈ KROC - CYYZ

Flight Track Log - Related Links

Times and Time Zones

All times are in EDT time to prevent confusion due to time zone crossing. See the GGN7281 flight status page for this flight to view local times or setup timezone preferences in your user account.

Time Position Orientation Groundspeed Altitude Reporting Facility
EDT Latitude Longitude Course Direction KTS MPH feet Rate Location/Type
05:58PM 43.1214 -77.6564 70° East 125 144 1,500  Level Cleveland Center
05:59PM 43.1289 -77.6275 70° East 143 165 2,800 2,040 Climbing Cleveland Center
06:00PM 43.1525 -77.6492 326° Northwest 160 184 4,400 1,680 Climbing Cleveland Center
06:00PM 43.1550 -77.6633 284° West 175 201 4,800 1,320 Climbing Cleveland Center
06:01PM 43.1650 -77.7339 281° West 185 213 6,200 1,980 Climbing Cleveland Center
06:02PM 43.1731 -77.8047 279° West 191 220 8,800 2,100 Climbing Cleveland Center
06:03PM 43.1786 -77.8700 277° West 184 212 10,500 1,440 Climbing Cleveland Center
06:04PM 43.1803 -77.9439 272° West 184 212 11,700 720 Climbing Cleveland Center
06:05PM 43.1844 -78.0292 274° West 201 231 12,000 120 Climbing Cleveland Center
06:06PM 43.1906 -78.1200 275° West 232 267 12,000  Level Cleveland Center
06:07PM 43.1967 -78.2167 275° West 244 281 12,000  Level Cleveland Center
06:08PM 43.2028 -78.3075 275° West 249 287 12,000  Level Cleveland Center
06:09PM 43.2086 -78.4014 275° West 249 287 12,000  Level Cleveland Center
06:10PM 43.2125 -78.4953 273° West 249 287 12,000  Level Cleveland Center
06:11PM 43.2203 -78.5892 277° West 249 287 12,000  Level Cleveland Center
06:12PM 43.2325 -78.6828 280° West 254 292 12,000  Level Cleveland Center
06:13PM 43.2442 -78.7736 280° West 254 292 12,000  Level Cleveland Center
06:14PM 43.2539 -78.8644 278° West 254 292 12,000 -60 Level Cleveland Center
06:15PM 43.2500 -78.9500 266° West 250 288 11,900 -540 Descending Toronto Center
06:16PM 43.2667 -79.0333 285° West 250 288 11,000 -900 Descending Toronto Center